sensor_id;sensor_type;location;lat;lon;timestamp;P1;durP1;ratioP1;P2;durP2;ratioP2
43337;SDS011;28933;52.492;13.434;2024-01-06T00:01:13;39.90;;;22.98;;
43337;SDS011;28933;52.492;13.434;2024-01-06T00:04:00;41.13;;;23.00;;
43337;SDS011;28933;52.492;13.434;2024-01-06T00:06:46;36.00;;;21.33;;
43337;SDS011;28933;52.492;13.434;2024-01-06T00:09:32;39.90;;;22.73;;
43337;SDS011;28933;52.492;13.434;2024-01-06T00:12:18;46.42;;;24.98;;
43337;SDS011;28933;52.492;13.434;2024-01-06T00:15:04;38.85;;;22.17;;
43337;SDS011;28933;52.492;13.434;2024-01-06T00:17:50;34.20;;;20.02;;
43337;SDS011;28933;52.492;13.434;2024-01-06T00:20:36;41.40;;;22.75;;
43337;SDS011;28933;52.492;13.434;2024-01-06T00:23:22;37.22;;;22.00;;
43337;SDS011;28933;52.492;13.434;2024-01-06T00:26:09;38.53;;;22.83;;
43337;SDS011;28933;52.492;13.434;2024-01-06T00:28:55;39.25;;;24.77;;
43337;SDS011;28933;52.492;13.434;2024-01-06T00:31:41;39.22;;;22.67;;
43337;SDS011;28933;52.492;13.434;2024-01-06T00:34:27;37.63;;;22.63;;
43337;SDS011;28933;52.492;13.434;2024-01-06T00:37:13;41.03;;;22.83;;
43337;SDS011;28933;52.492;13.434;2024-01-06T00:39:59;38.40;;;21.90;;
43337;SDS011;28933;52.492;13.434;2024-01-06T00:42:45;33.42;;;20.30;;
43337;SDS011;28933;52.492;13.434;2024-01-06T00:45:31;33.53;;;20.25;;
43337;SDS011;28933;52.492;13.434;2024-01-06T00:48:17;42.03;;;23.20;;
43337;SDS011;28933;52.492;13.434;2024-01-06T00:51:03;41.67;;;20.83;;
43337;SDS011;28933;52.492;13.434;2024-01-06T00:53:49;39.90;;;22.50;;
43337;SDS011;28933;52.492;13.434;2024-01-06T00:56:35;35.78;;;19.38;;
43337;SDS011;28933;52.492;13.434;2024-01-06T00:59:21;33.42;;;20.58;;
43337;SDS011;28933;52.492;13.434;2024-01-06T01:02:07;37.03;;;20.95;;
43337;SDS011;28933;52.492;13.434;2024-01-06T01:04:53;36.88;;;20.48;;
43337;SDS011;28933;52.492;13.434;2024-01-06T01:07:39;34.30;;;20.15;;
43337;SDS011;28933;52.492;13.434;2024-01-06T01:10:25;33.60;;;21.50;;
43337;SDS011;28933;52.492;13.434;2024-01-06T01:13:11;33.85;;;20.48;;
43337;SDS011;28933;52.492;13.434;2024-01-06T01:15:57;34.90;;;20.80;;
43337;SDS011;28933;52.492;13.434;2024-01-06T01:18:43;31.13;;;18.88;;
43337;SDS011;28933;52.492;13.434;2024-01-06T01:21:29;34.13;;;21.17;;
43337;SDS011;28933;52.492;13.434;2024-01-06T01:24:15;34.13;;;19.63;;
43337;SDS011;28933;52.492;13.434;2024-01-06T01:27:00;33.13;;;19.75;;
43337;SDS011;28933;52.492;13.434;2024-01-06T01:29:46;35.47;;;20.63;;
43337;SDS011;28933;52.492;13.434;2024-01-06T01:32:33;28.73;;;18.23;;
43337;SDS011;28933;52.492;13.434;2024-01-06T01:35:19;31.35;;;19.50;;
43337;SDS011;28933;52.492;13.434;2024-01-06T01:38:06;34.58;;;20.67;;
43337;SDS011;28933;52.492;13.434;2024-01-06T01:40:52;34.50;;;19.05;;
43337;SDS011;28933;52.492;13.434;2024-01-06T01:43:38;35.42;;;21.33;;
43337;SDS011;28933;52.492;13.434;2024-01-06T01:46:28;33.78;;;19.38;;
43337;SDS011;28933;52.492;13.434;2024-01-06T01:49:14;35.28;;;19.63;;
43337;SDS011;28933;52.492;13.434;2024-01-06T01:52:01;35.22;;;20.73;;
43337;SDS011;28933;52.492;13.434;2024-01-06T01:54:47;36.42;;;19.85;;
43337;SDS011;28933;52.492;13.434;2024-01-06T01:57:33;32.00;;;18.98;;
43337;SDS011;28933;52.492;13.434;2024-01-06T02:00:19;33.10;;;19.85;;
43337;SDS011;28933;52.492;13.434;2024-01-06T02:03:05;31.58;;;18.60;;
43337;SDS011;28933;52.492;13.434;2024-01-06T02:05:54;37.80;;;20.48;;
43337;SDS011;28933;52.492;13.434;2024-01-06T02:08:40;32.97;;;19.23;;
43337;SDS011;28933;52.492;13.434;2024-01-06T02:11:26;34.05;;;18.05;;
43337;SDS011;28933;52.492;13.434;2024-01-06T02:14:12;33.35;;;19.95;;
43337;SDS011;28933;52.492;13.434;2024-01-06T02:16:58;31.70;;;18.42;;
43337;SDS011;28933;52.492;13.434;2024-01-06T02:19:44;30.65;;;17.50;;
43337;SDS011;28933;52.492;13.434;2024-01-06T02:22:30;32.08;;;18.67;;
43337;SDS011;28933;52.492;13.434;2024-01-06T02:25:16;36.08;;;20.58;;
43337;SDS011;28933;52.492;13.434;2024-01-06T02:28:03;34.75;;;18.40;;
43337;SDS011;28933;52.492;13.434;2024-01-06T02:30:49;31.10;;;17.90;;
43337;SDS011;28933;52.492;13.434;2024-01-06T02:33:35;32.75;;;20.35;;
43337;SDS011;28933;52.492;13.434;2024-01-06T02:36:22;34.88;;;19.75;;
43337;SDS011;28933;52.492;13.434;2024-01-06T02:39:08;34.55;;;20.75;;
43337;SDS011;28933;52.492;13.434;2024-01-06T02:41:54;30.85;;;18.38;;
43337;SDS011;28933;52.492;13.434;2024-01-06T02:44:40;35.75;;;18.60;;
43337;SDS011;28933;52.492;13.434;2024-01-06T02:47:26;35.85;;;18.85;;
43337;SDS011;28933;52.492;13.434;2024-01-06T02:50:12;34.85;;;19.42;;
43337;SDS011;28933;52.492;13.434;2024-01-06T02:52:58;28.60;;;17.73;;
43337;SDS011;28933;52.492;13.434;2024-01-06T02:55:44;33.13;;;18.73;;
43337;SDS011;28933;52.492;13.434;2024-01-06T02:58:30;32.15;;;18.52;;
43337;SDS011;28933;52.492;13.434;2024-01-06T03:01:16;31.02;;;17.55;;
43337;SDS011;28933;52.492;13.434;2024-01-06T03:04:03;32.00;;;19.13;;
43337;SDS011;28933;52.492;13.434;2024-01-06T03:06:49;34.42;;;19.88;;
43337;SDS011;28933;52.492;13.434;2024-01-06T03:09:38;30.42;;;19.40;;
43337;SDS011;28933;52.492;13.434;2024-01-06T03:12:24;32.95;;;18.73;;
43337;SDS011;28933;52.492;13.434;2024-01-06T03:15:10;29.40;;;17.40;;
43337;SDS011;28933;52.492;13.434;2024-01-06T03:17:56;30.50;;;17.92;;
43337;SDS011;28933;52.492;13.434;2024-01-06T03:20:42;29.65;;;18.10;;
43337;SDS011;28933;52.492;13.434;2024-01-06T03:23:28;34.70;;;19.90;;
43337;SDS011;28933;52.492;13.434;2024-01-06T03:26:14;27.17;;;17.52;;
43337;SDS011;28933;52.492;13.434;2024-01-06T03:29:00;30.80;;;17.50;;
43337;SDS011;28933;52.492;13.434;2024-01-06T03:31:48;35.42;;;19.67;;
43337;SDS011;28933;52.492;13.434;2024-01-06T03:34:34;31.33;;;16.90;;
43337;SDS011;28933;52.492;13.434;2024-01-06T03:37:20;30.73;;;17.58;;
43337;SDS011;28933;52.492;13.434;2024-01-06T03:40:07;31.70;;;17.83;;
43337;SDS011;28933;52.492;13.434;2024-01-06T03:42:53;32.78;;;17.92;;
43337;SDS011;28933;52.492;13.434;2024-01-06T03:45:40;32.80;;;17.10;;
43337;SDS011;28933;52.492;13.434;2024-01-06T03:48:26;33.05;;;17.90;;
43337;SDS011;28933;52.492;13.434;2024-01-06T03:51:12;33.40;;;19.23;;
43337;SDS011;28933;52.492;13.434;2024-01-06T03:53:58;36.50;;;19.73;;
43337;SDS011;28933;52.492;13.434;2024-01-06T03:56:44;32.83;;;18.55;;
43337;SDS011;28933;52.492;13.434;2024-01-06T03:59:30;36.20;;;20.58;;
43337;SDS011;28933;52.492;13.434;2024-01-06T04:02:15;32.53;;;18.52;;
43337;SDS011;28933;52.492;13.434;2024-01-06T04:05:01;38.58;;;19.10;;
43337;SDS011;28933;52.492;13.434;2024-01-06T04:07:50;33.83;;;18.27;;
43337;SDS011;28933;52.492;13.434;2024-01-06T04:10:36;41.38;;;21.15;;
43337;SDS011;28933;52.492;13.434;2024-01-06T04:13:22;39.60;;;19.85;;
43337;SDS011;28933;52.492;13.434;2024-01-06T04:16:10;30.30;;;19.30;;
43337;SDS011;28933;52.492;13.434;2024-01-06T04:18:55;37.05;;;19.83;;
43337;SDS011;28933;52.492;13.434;2024-01-06T04:21:41;38.50;;;20.50;;
43337;SDS011;28933;52.492;13.434;2024-01-06T04:24:27;35.05;;;18.75;;
43337;SDS011;28933;52.492;13.434;2024-01-06T04:27:13;33.05;;;18.05;;
43337;SDS011;28933;52.492;13.434;2024-01-06T04:29:59;36.85;;;20.45;;
43337;SDS011;28933;52.492;13.434;2024-01-06T04:32:45;32.78;;;17.48;;
43337;SDS011;28933;52.492;13.434;2024-01-06T04:35:33;37.40;;;19.17;;
43337;SDS011;28933;52.492;13.434;2024-01-06T04:38:19;32.75;;;18.50;;
43337;SDS011;28933;52.492;13.434;2024-01-06T04:41:05;40.90;;;20.77;;
43337;SDS011;28933;52.492;13.434;2024-01-06T04:43:51;36.72;;;18.13;;
43337;SDS011;28933;52.492;13.434;2024-01-06T04:46:37;39.60;;;21.33;;
43337;SDS011;28933;52.492;13.434;2024-01-06T04:49:23;35.88;;;20.10;;
43337;SDS011;28933;52.492;13.434;2024-01-06T04:52:09;39.20;;;20.38;;
43337;SDS011;28933;52.492;13.434;2024-01-06T04:54:55;40.63;;;18.85;;
43337;SDS011;28933;52.492;13.434;2024-01-06T04:57:41;40.58;;;21.25;;
43337;SDS011;28933;52.492;13.434;2024-01-06T05:00:27;39.60;;;21.77;;
43337;SDS011;28933;52.492;13.434;2024-01-06T05:03:13;39.65;;;21.42;;
43337;SDS011;28933;52.492;13.434;2024-01-06T05:05:59;39.70;;;20.52;;
43337;SDS011;28933;52.492;13.434;2024-01-06T05:08:45;37.65;;;22.00;;
43337;SDS011;28933;52.492;13.434;2024-01-06T05:11:31;37.70;;;21.35;;
43337;SDS011;28933;52.492;13.434;2024-01-06T05:14:16;40.28;;;22.38;;
43337;SDS011;28933;52.492;13.434;2024-01-06T05:17:02;41.90;;;23.63;;
43337;SDS011;28933;52.492;13.434;2024-01-06T05:19:49;41.20;;;22.25;;
43337;SDS011;28933;52.492;13.434;2024-01-06T05:22:35;40.70;;;20.15;;
43337;SDS011;28933;52.492;13.434;2024-01-06T05:25:21;37.50;;;20.92;;
43337;SDS011;28933;52.492;13.434;2024-01-06T05:28:06;44.90;;;23.30;;
43337;SDS011;28933;52.492;13.434;2024-01-06T05:30:52;42.75;;;22.25;;
43337;SDS011;28933;52.492;13.434;2024-01-06T05:33:38;42.28;;;22.95;;
43337;SDS011;28933;52.492;13.434;2024-01-06T05:36:24;37.17;;;20.23;;
43337;SDS011;28933;52.492;13.434;2024-01-06T05:39:11;41.95;;;24.42;;
43337;SDS011;28933;52.492;13.434;2024-01-06T05:41:57;44.28;;;23.17;;
43337;SDS011;28933;52.492;13.434;2024-01-06T05:44:43;44.08;;;23.30;;
43337;SDS011;28933;52.492;13.434;2024-01-06T05:47:30;44.35;;;24.40;;
43337;SDS011;28933;52.492;13.434;2024-01-06T05:50:16;45.85;;;22.80;;
43337;SDS011;28933;52.492;13.434;2024-01-06T05:53:02;45.33;;;24.77;;
43337;SDS011;28933;52.492;13.434;2024-01-06T05:55:48;47.20;;;22.77;;
43337;SDS011;28933;52.492;13.434;2024-01-06T05:58:34;51.13;;;24.60;;
43337;SDS011;28933;52.492;13.434;2024-01-06T06:01:20;49.15;;;23.30;;
43337;SDS011;28933;52.492;13.434;2024-01-06T06:04:06;49.33;;;24.98;;
43337;SDS011;28933;52.492;13.434;2024-01-06T06:06:52;38.83;;;23.08;;
43337;SDS011;28933;52.492;13.434;2024-01-06T06:09:38;45.55;;;24.10;;
43337;SDS011;28933;52.492;13.434;2024-01-06T06:12:25;43.72;;;23.42;;
43337;SDS011;28933;52.492;13.434;2024-01-06T06:15:11;40.47;;;21.35;;
43337;SDS011;28933;52.492;13.434;2024-01-06T06:17:57;47.83;;;23.45;;
43337;SDS011;28933;52.492;13.434;2024-01-06T06:20:45;49.30;;;24.05;;
43337;SDS011;28933;52.492;13.434;2024-01-06T06:23:32;49.13;;;25.55;;
43337;SDS011;28933;52.492;13.434;2024-01-06T06:26:18;39.20;;;22.08;;
43337;SDS011;28933;52.492;13.434;2024-01-06T06:29:04;46.58;;;22.85;;
43337;SDS011;28933;52.492;13.434;2024-01-06T06:31:50;42.45;;;21.60;;
43337;SDS011;28933;52.492;13.434;2024-01-06T06:34:36;43.53;;;21.45;;
43337;SDS011;28933;52.492;13.434;2024-01-06T06:37:22;45.42;;;21.27;;
43337;SDS011;28933;52.492;13.434;2024-01-06T06:40:09;45.55;;;23.92;;
43337;SDS011;28933;52.492;13.434;2024-01-06T06:42:55;49.88;;;23.10;;
43337;SDS011;28933;52.492;13.434;2024-01-06T06:45:41;43.40;;;22.55;;
43337;SDS011;28933;52.492;13.434;2024-01-06T06:48:27;41.40;;;20.77;;
43337;SDS011;28933;52.492;13.434;2024-01-06T06:51:13;45.00;;;22.48;;
43337;SDS011;28933;52.492;13.434;2024-01-06T06:53:59;44.33;;;20.80;;
43337;SDS011;28933;52.492;13.434;2024-01-06T06:56:45;45.33;;;23.35;;
43337;SDS011;28933;52.492;13.434;2024-01-06T06:59:31;47.53;;;24.23;;
43337;SDS011;28933;52.492;13.434;2024-01-06T07:02:17;42.08;;;23.35;;
43337;SDS011;28933;52.492;13.434;2024-01-06T07:05:03;45.60;;;22.30;;
43337;SDS011;28933;52.492;13.434;2024-01-06T07:07:52;41.45;;;22.77;;
43337;SDS011;28933;52.492;13.434;2024-01-06T07:10:38;38.13;;;20.45;;
43337;SDS011;28933;52.492;13.434;2024-01-06T07:13:24;40.78;;;22.00;;
43337;SDS011;28933;52.492;13.434;2024-01-06T07:16:10;54.35;;;23.83;;
43337;SDS011;28933;52.492;13.434;2024-01-06T07:18:56;40.75;;;21.88;;
43337;SDS011;28933;52.492;13.434;2024-01-06T07:21:42;44.35;;;22.70;;
43337;SDS011;28933;52.492;13.434;2024-01-06T07:24:28;41.03;;;22.55;;
43337;SDS011;28933;52.492;13.434;2024-01-06T07:27:14;40.95;;;21.52;;
43337;SDS011;28933;52.492;13.434;2024-01-06T07:30:00;42.45;;;21.98;;
43337;SDS011;28933;52.492;13.434;2024-01-06T07:32:46;40.47;;;20.98;;
43337;SDS011;28933;52.492;13.434;2024-01-06T07:35:32;43.75;;;22.65;;
43337;SDS011;28933;52.492;13.434;2024-01-06T07:38:18;39.58;;;21.95;;
43337;SDS011;28933;52.492;13.434;2024-01-06T07:41:04;39.72;;;20.60;;
43337;SDS011;28933;52.492;13.434;2024-01-06T07:43:52;50.92;;;21.77;;
43337;SDS011;28933;52.492;13.434;2024-01-06T07:46:38;42.47;;;21.55;;
43337;SDS011;28933;52.492;13.434;2024-01-06T07:49:27;49.80;;;21.42;;
43337;SDS011;28933;52.492;13.434;2024-01-06T07:52:13;44.88;;;22.92;;
43337;SDS011;28933;52.492;13.434;2024-01-06T07:54:59;43.83;;;20.02;;
43337;SDS011;28933;52.492;13.434;2024-01-06T07:57:45;40.72;;;21.05;;
43337;SDS011;28933;52.492;13.434;2024-01-06T08:00:31;51.35;;;24.75;;
43337;SDS011;28933;52.492;13.434;2024-01-06T08:03:17;53.92;;;24.40;;
43337;SDS011;28933;52.492;13.434;2024-01-06T08:06:03;48.85;;;24.13;;
43337;SDS011;28933;52.492;13.434;2024-01-06T08:08:49;50.97;;;22.35;;
43337;SDS011;28933;52.492;13.434;2024-01-06T08:11:35;41.15;;;21.25;;
43337;SDS011;28933;52.492;13.434;2024-01-06T08:14:21;44.13;;;22.58;;
43337;SDS011;28933;52.492;13.434;2024-01-06T08:17:07;46.08;;;22.73;;
43337;SDS011;28933;52.492;13.434;2024-01-06T08:19:52;43.28;;;22.30;;
43337;SDS011;28933;52.492;13.434;2024-01-06T08:22:38;51.25;;;22.88;;
43337;SDS011;28933;52.492;13.434;2024-01-06T08:25:24;41.85;;;21.23;;
43337;SDS011;28933;52.492;13.434;2024-01-06T08:28:13;46.45;;;24.33;;
43337;SDS011;28933;52.492;13.434;2024-01-06T08:31:04;49.30;;;22.00;;
43337;SDS011;28933;52.492;13.434;2024-01-06T08:33:49;42.25;;;22.40;;
43337;SDS011;28933;52.492;13.434;2024-01-06T08:36:35;59.53;;;28.27;;
43337;SDS011;28933;52.492;13.434;2024-01-06T08:39:21;50.65;;;24.45;;
43337;SDS011;28933;52.492;13.434;2024-01-06T08:42:07;50.05;;;25.98;;
43337;SDS011;28933;52.492;13.434;2024-01-06T08:44:53;48.05;;;23.23;;
43337;SDS011;28933;52.492;13.434;2024-01-06T08:47:39;45.55;;;24.30;;
43337;SDS011;28933;52.492;13.434;2024-01-06T08:50:25;46.53;;;22.75;;
43337;SDS011;28933;52.492;13.434;2024-01-06T08:53:11;41.58;;;20.55;;
43337;SDS011;28933;52.492;13.434;2024-01-06T08:55:57;48.05;;;21.48;;
43337;SDS011;28933;52.492;13.434;2024-01-06T08:58:43;48.85;;;26.85;;
43337;SDS011;28933;52.492;13.434;2024-01-06T09:01:30;50.03;;;25.80;;
43337;SDS011;28933;52.492;13.434;2024-01-06T09:04:17;45.15;;;21.08;;
43337;SDS011;28933;52.492;13.434;2024-01-06T09:07:03;44.15;;;24.30;;
43337;SDS011;28933;52.492;13.434;2024-01-06T09:09:49;42.95;;;22.88;;
43337;SDS011;28933;52.492;13.434;2024-01-06T09:12:36;47.55;;;24.50;;
43337;SDS011;28933;52.492;13.434;2024-01-06T09:15:22;53.22;;;25.08;;
43337;SDS011;28933;52.492;13.434;2024-01-06T09:18:09;49.20;;;25.45;;
43337;SDS011;28933;52.492;13.434;2024-01-06T09:20:55;46.22;;;23.65;;
43337;SDS011;28933;52.492;13.434;2024-01-06T09:23:41;51.53;;;24.65;;
43337;SDS011;28933;52.492;13.434;2024-01-06T09:26:27;48.35;;;25.58;;
43337;SDS011;28933;52.492;13.434;2024-01-06T09:29:13;55.35;;;26.45;;
43337;SDS011;28933;52.492;13.434;2024-01-06T09:31:59;49.42;;;21.67;;
43337;SDS011;28933;52.492;13.434;2024-01-06T09:34:45;46.20;;;25.30;;
43337;SDS011;28933;52.492;13.434;2024-01-06T09:37:30;48.97;;;25.08;;
43337;SDS011;28933;52.492;13.434;2024-01-06T09:40:23;52.28;;;25.08;;
43337;SDS011;28933;52.492;13.434;2024-01-06T09:43:10;48.47;;;25.42;;
43337;SDS011;28933;52.492;13.434;2024-01-06T09:45:58;38.60;;;21.10;;
43337;SDS011;28933;52.492;13.434;2024-01-06T09:48:52;40.10;;;23.52;;
43337;SDS011;28933;52.492;13.434;2024-01-06T09:51:39;44.35;;;22.70;;
43337;SDS011;28933;52.492;13.434;2024-01-06T09:54:25;42.90;;;22.02;;
43337;SDS011;28933;52.492;13.434;2024-01-06T09:57:18;42.00;;;23.83;;
43337;SDS011;28933;52.492;13.434;2024-01-06T10:00:06;40.80;;;23.35;;
43337;SDS011;28933;52.492;13.434;2024-01-06T10:02:54;40.88;;;21.13;;
43337;SDS011;28933;52.492;13.434;2024-01-06T10:05:40;39.35;;;22.83;;
43337;SDS011;28933;52.492;13.434;2024-01-06T10:08:26;40.33;;;22.83;;
43337;SDS011;28933;52.492;13.434;2024-01-06T10:11:12;41.35;;;20.90;;
43337;SDS011;28933;52.492;13.434;2024-01-06T10:13:59;41.97;;;22.10;;
43337;SDS011;28933;52.492;13.434;2024-01-06T10:16:45;44.00;;;23.77;;
43337;SDS011;28933;52.492;13.434;2024-01-06T10:19:31;47.38;;;24.95;;
43337;SDS011;28933;52.492;13.434;2024-01-06T10:22:17;48.55;;;24.70;;
43337;SDS011;28933;52.492;13.434;2024-01-06T10:25:06;39.25;;;20.45;;
43337;SDS011;28933;52.492;13.434;2024-01-06T10:27:53;42.60;;;22.98;;
43337;SDS011;28933;52.492;13.434;2024-01-06T10:30:39;36.67;;;21.27;;
43337;SDS011;28933;52.492;13.434;2024-01-06T10:33:25;42.30;;;21.33;;
43337;SDS011;28933;52.492;13.434;2024-01-06T10:36:11;35.55;;;21.15;;
43337;SDS011;28933;52.492;13.434;2024-01-06T10:38:57;46.75;;;23.33;;
43337;SDS011;28933;52.492;13.434;2024-01-06T10:41:44;39.60;;;20.85;;
43337;SDS011;28933;52.492;13.434;2024-01-06T10:44:30;34.30;;;20.67;;
43337;SDS011;28933;52.492;13.434;2024-01-06T10:47:17;42.00;;;22.67;;
43337;SDS011;28933;52.492;13.434;2024-01-06T10:50:05;40.58;;;22.85;;
43337;SDS011;28933;52.492;13.434;2024-01-06T10:52:52;36.25;;;20.38;;
43337;SDS011;28933;52.492;13.434;2024-01-06T10:55:40;42.85;;;22.08;;
43337;SDS011;28933;52.492;13.434;2024-01-06T10:58:27;37.30;;;20.48;;
43337;SDS011;28933;52.492;13.434;2024-01-06T11:01:13;39.10;;;20.92;;
43337;SDS011;28933;52.492;13.434;2024-01-06T11:04:00;34.70;;;19.60;;
43337;SDS011;28933;52.492;13.434;2024-01-06T11:06:49;36.28;;;19.42;;
43337;SDS011;28933;52.492;13.434;2024-01-06T11:09:37;41.10;;;21.05;;
43337;SDS011;28933;52.492;13.434;2024-01-06T11:12:28;36.15;;;19.33;;
43337;SDS011;28933;52.492;13.434;2024-01-06T11:16:00;39.28;;;21.23;;
43337;SDS011;28933;52.492;13.434;2024-01-06T11:21:22;39.42;;;21.02;;
43337;SDS011;28933;52.492;13.434;2024-01-06T11:24:18;35.55;;;20.33;;
43337;SDS011;28933;52.492;13.434;2024-01-06T11:27:09;34.72;;;19.02;;
43337;SDS011;28933;52.492;13.434;2024-01-06T11:30:03;40.35;;;21.67;;
43337;SDS011;28933;52.492;13.434;2024-01-06T11:32:53;35.88;;;20.70;;
43337;SDS011;28933;52.492;13.434;2024-01-06T11:35:43;36.53;;;20.48;;
43337;SDS011;28933;52.492;13.434;2024-01-06T11:38:37;35.30;;;20.05;;
43337;SDS011;28933;52.492;13.434;2024-01-06T11:44:38;36.28;;;20.42;;
43337;SDS011;28933;52.492;13.434;2024-01-06T11:47:28;32.53;;;18.90;;
43337;SDS011;28933;52.492;13.434;2024-01-06T11:50:16;31.77;;;17.58;;
43337;SDS011;28933;52.492;13.434;2024-01-06T11:53:02;35.95;;;18.98;;
43337;SDS011;28933;52.492;13.434;2024-01-06T11:55:49;32.40;;;18.33;;
43337;SDS011;28933;52.492;13.434;2024-01-06T11:58:39;35.65;;;20.08;;
43337;SDS011;28933;52.492;13.434;2024-01-06T12:01:26;34.50;;;19.48;;
43337;SDS011;28933;52.492;13.434;2024-01-06T12:04:15;31.75;;;18.50;;
43337;SDS011;28933;52.492;13.434;2024-01-06T12:07:05;33.08;;;18.63;;
43337;SDS011;28933;52.492;13.434;2024-01-06T12:10:00;34.25;;;19.33;;
43337;SDS011;28933;52.492;13.434;2024-01-06T12:15:43;31.02;;;17.00;;
43337;SDS011;28933;52.492;13.434;2024-01-06T12:18:29;35.00;;;18.45;;
43337;SDS011;28933;52.492;13.434;2024-01-06T12:21:15;31.88;;;20.35;;
43337;SDS011;28933;52.492;13.434;2024-01-06T12:24:18;35.42;;;17.85;;
43337;SDS011;28933;52.492;13.434;2024-01-06T12:27:09;30.40;;;17.05;;
43337;SDS011;28933;52.492;13.434;2024-01-06T12:29:57;35.80;;;19.88;;
43337;SDS011;28933;52.492;13.434;2024-01-06T12:32:43;34.35;;;20.92;;
43337;SDS011;28933;52.492;13.434;2024-01-06T12:35:34;32.75;;;19.10;;
43337;SDS011;28933;52.492;13.434;2024-01-06T12:38:21;36.10;;;20.00;;
43337;SDS011;28933;52.492;13.434;2024-01-06T12:41:07;41.13;;;20.88;;
43337;SDS011;28933;52.492;13.434;2024-01-06T12:43:52;34.90;;;19.65;;
43337;SDS011;28933;52.492;13.434;2024-01-06T12:46:38;37.20;;;20.60;;
43337;SDS011;28933;52.492;13.434;2024-01-06T12:49:24;32.33;;;18.95;;
43337;SDS011;28933;52.492;13.434;2024-01-06T12:52:10;36.88;;;20.45;;
43337;SDS011;28933;52.492;13.434;2024-01-06T12:54:56;33.63;;;18.38;;
43337;SDS011;28933;52.492;13.434;2024-01-06T12:57:42;32.35;;;19.33;;
43337;SDS011;28933;52.492;13.434;2024-01-06T13:00:28;33.65;;;20.00;;
43337;SDS011;28933;52.492;13.434;2024-01-06T13:03:14;38.20;;;21.00;;
43337;SDS011;28933;52.492;13.434;2024-01-06T13:06:00;33.15;;;18.95;;
43337;SDS011;28933;52.492;13.434;2024-01-06T13:08:47;39.85;;;20.23;;
43337;SDS011;28933;52.492;13.434;2024-01-06T13:11:34;35.65;;;19.15;;
43337;SDS011;28933;52.492;13.434;2024-01-06T13:14:21;33.67;;;18.52;;
43337;SDS011;28933;52.492;13.434;2024-01-06T13:17:07;32.85;;;18.75;;
43337;SDS011;28933;52.492;13.434;2024-01-06T13:19:54;35.90;;;19.55;;
43337;SDS011;28933;52.492;13.434;2024-01-06T13:22:41;36.72;;;19.50;;
43337;SDS011;28933;52.492;13.434;2024-01-06T13:25:27;33.17;;;17.95;;
43337;SDS011;28933;52.492;13.434;2024-01-06T13:28:14;33.35;;;18.60;;
43337;SDS011;28933;52.492;13.434;2024-01-06T13:31:00;33.45;;;18.25;;
43337;SDS011;28933;52.492;13.434;2024-01-06T13:33:46;34.75;;;18.48;;
43337;SDS011;28933;52.492;13.434;2024-01-06T13:36:32;31.58;;;17.08;;
43337;SDS011;28933;52.492;13.434;2024-01-06T13:39:18;30.92;;;17.23;;
43337;SDS011;28933;52.492;13.434;2024-01-06T13:42:07;28.27;;;17.13;;
43337;SDS011;28933;52.492;13.434;2024-01-06T13:44:53;30.88;;;16.92;;
43337;SDS011;28933;52.492;13.434;2024-01-06T13:47:39;29.23;;;16.42;;
43337;SDS011;28933;52.492;13.434;2024-01-06T13:50:29;30.00;;;16.30;;
43337;SDS011;28933;52.492;13.434;2024-01-06T13:53:15;26.75;;;15.77;;
43337;SDS011;28933;52.492;13.434;2024-01-06T13:56:01;28.92;;;16.25;;
43337;SDS011;28933;52.492;13.434;2024-01-06T13:58:48;30.13;;;15.68;;
43337;SDS011;28933;52.492;13.434;2024-01-06T14:01:34;31.10;;;18.42;;
43337;SDS011;28933;52.492;13.434;2024-01-06T14:04:20;35.15;;;18.65;;
43337;SDS011;28933;52.492;13.434;2024-01-06T14:07:08;35.47;;;17.80;;
43337;SDS011;28933;52.492;13.434;2024-01-06T14:09:55;32.13;;;17.38;;
43337;SDS011;28933;52.492;13.434;2024-01-06T14:12:41;30.55;;;16.40;;
43337;SDS011;28933;52.492;13.434;2024-01-06T14:15:27;29.17;;;16.65;;
43337;SDS011;28933;52.492;13.434;2024-01-06T14:18:16;32.45;;;16.15;;
43337;SDS011;28933;52.492;13.434;2024-01-06T14:21:02;34.97;;;18.48;;
43337;SDS011;28933;52.492;13.434;2024-01-06T14:23:50;28.77;;;17.23;;
43337;SDS011;28933;52.492;13.434;2024-01-06T14:26:36;28.05;;;15.60;;
43337;SDS011;28933;52.492;13.434;2024-01-06T14:29:24;31.00;;;16.45;;
43337;SDS011;28933;52.492;13.434;2024-01-06T14:32:10;29.95;;;17.77;;
43337;SDS011;28933;52.492;13.434;2024-01-06T14:34:56;27.55;;;15.95;;
43337;SDS011;28933;52.492;13.434;2024-01-06T14:37:42;31.08;;;16.70;;
43337;SDS011;28933;52.492;13.434;2024-01-06T14:40:29;30.10;;;16.10;;
43337;SDS011;28933;52.492;13.434;2024-01-06T14:43:15;30.17;;;17.73;;
43337;SDS011;28933;52.492;13.434;2024-01-06T14:46:01;29.13;;;16.17;;
43337;SDS011;28933;52.492;13.434;2024-01-06T14:48:47;29.17;;;16.33;;
43337;SDS011;28933;52.492;13.434;2024-01-06T14:51:33;30.20;;;16.58;;
43337;SDS011;28933;52.492;13.434;2024-01-06T14:54:19;30.10;;;16.35;;
43337;SDS011;28933;52.492;13.434;2024-01-06T14:57:05;25.88;;;16.15;;
43337;SDS011;28933;52.492;13.434;2024-01-06T14:59:51;25.15;;;15.38;;
43337;SDS011;28933;52.492;13.434;2024-01-06T15:02:37;31.02;;;16.73;;
43337;SDS011;28933;52.492;13.434;2024-01-06T15:05:24;26.58;;;13.57;;
43337;SDS011;28933;52.492;13.434;2024-01-06T15:08:14;26.98;;;15.63;;
43337;SDS011;28933;52.492;13.434;2024-01-06T15:11:00;23.35;;;13.80;;
43337;SDS011;28933;52.492;13.434;2024-01-06T15:13:48;23.23;;;12.35;;
43337;SDS011;28933;52.492;13.434;2024-01-06T15:16:34;21.15;;;12.30;;
43337;SDS011;28933;52.492;13.434;2024-01-06T15:19:20;22.42;;;13.95;;
43337;SDS011;28933;52.492;13.434;2024-01-06T15:22:08;25.08;;;13.77;;
43337;SDS011;28933;52.492;13.434;2024-01-06T15:24:54;19.00;;;11.77;;
43337;SDS011;28933;52.492;13.434;2024-01-06T15:27:40;18.90;;;11.68;;
43337;SDS011;28933;52.492;13.434;2024-01-06T15:30:26;19.17;;;11.18;;
43337;SDS011;28933;52.492;13.434;2024-01-06T15:33:12;16.15;;;9.32;;
43337;SDS011;28933;52.492;13.434;2024-01-06T15:35:59;20.77;;;11.55;;
43337;SDS011;28933;52.492;13.434;2024-01-06T15:38:46;16.98;;;9.90;;
43337;SDS011;28933;52.492;13.434;2024-01-06T15:41:33;18.50;;;10.48;;
43337;SDS011;28933;52.492;13.434;2024-01-06T15:44:19;22.88;;;11.50;;
43337;SDS011;28933;52.492;13.434;2024-01-06T15:47:05;18.92;;;11.02;;
43337;SDS011;28933;52.492;13.434;2024-01-06T15:49:51;21.90;;;12.60;;
43337;SDS011;28933;52.492;13.434;2024-01-06T15:52:37;20.38;;;10.95;;
43337;SDS011;28933;52.492;13.434;2024-01-06T15:55:23;20.13;;;11.80;;
43337;SDS011;28933;52.492;13.434;2024-01-06T15:58:09;19.60;;;11.65;;
43337;SDS011;28933;52.492;13.434;2024-01-06T16:00:55;20.65;;;10.88;;
43337;SDS011;28933;52.492;13.434;2024-01-06T16:03:41;16.63;;;10.30;;
43337;SDS011;28933;52.492;13.434;2024-01-06T16:06:27;16.33;;;10.05;;
43337;SDS011;28933;52.492;13.434;2024-01-06T16:09:13;15.02;;;7.25;;